sensor_id;sensor_type;location;lat;lon;timestamp;P1;durP1;ratioP1;P2;durP2;ratioP2
25667;SDS011;18003;-33.830;151.202;2023-03-08T00:00:26;8.70;;;3.02;;
25667;SDS011;18003;-33.830;151.202;2023-03-08T00:02:56;5.85;;;2.80;;
25667;SDS011;18003;-33.830;151.202;2023-03-08T00:05:26;4.75;;;2.42;;
25667;SDS011;18003;-33.830;151.202;2023-03-08T00:07:56;5.53;;;2.60;;
25667;SDS011;18003;-33.830;151.202;2023-03-08T00:10:26;3.47;;;2.60;;
25667;SDS011;18003;-33.830;151.202;2023-03-08T00:12:56;6.70;;;2.60;;
25667;SDS011;18003;-33.830;151.202;2023-03-08T00:15:27;4.35;;;2.42;;
25667;SDS011;18003;-33.830;151.202;2023-03-08T00:17:57;4.97;;;2.67;;
25667;SDS011;18003;-33.830;151.202;2023-03-08T00:20:27;5.33;;;2.60;;
25667;SDS011;18003;-33.830;151.202;2023-03-08T00:22:57;8.38;;;3.00;;
25667;SDS011;18003;-33.830;151.202;2023-03-08T00:25:27;5.17;;;2.72;;
25667;SDS011;18003;-33.830;151.202;2023-03-08T00:27:57;4.30;;;2.55;;
25667;SDS011;18003;-33.830;151.202;2023-03-08T00:30:27;7.30;;;2.58;;
25667;SDS011;18003;-33.830;151.202;2023-03-08T00:32:57;6.30;;;2.90;;
25667;SDS011;18003;-33.830;151.202;2023-03-08T00:35:27;5.60;;;2.40;;
25667;SDS011;18003;-33.830;151.202;2023-03-08T00:37:57;3.47;;;2.70;;
25667;SDS011;18003;-33.830;151.202;2023-03-08T00:40:27;4.70;;;2.62;;
25667;SDS011;18003;-33.830;151.202;2023-03-08T00:42:57;5.65;;;2.50;;
25667;SDS011;18003;-33.830;151.202;2023-03-08T00:45:27;3.87;;;2.42;;
25667;SDS011;18003;-33.830;151.202;2023-03-08T00:47:57;6.40;;;2.47;;
25667;SDS011;18003;-33.830;151.202;2023-03-08T00:50:27;3.40;;;2.57;;
25667;SDS011;18003;-33.830;151.202;2023-03-08T00:52:57;5.67;;;2.65;;
25667;SDS011;18003;-33.830;151.202;2023-03-08T00:55:27;3.27;;;2.12;;
25667;SDS011;18003;-33.830;151.202;2023-03-08T00:57:58;5.12;;;2.40;;
25667;SDS011;18003;-33.830;151.202;2023-03-08T01:00:28;3.60;;;2.60;;
25667;SDS011;18003;-33.830;151.202;2023-03-08T01:02:58;6.00;;;2.72;;
25667;SDS011;18003;-33.830;151.202;2023-03-08T01:05:28;4.00;;;3.30;;
25667;SDS011;18003;-33.830;151.202;2023-03-08T01:07:58;5.28;;;3.12;;
25667;SDS011;18003;-33.830;151.202;2023-03-08T01:10:29;3.92;;;2.90;;
25667;SDS011;18003;-33.830;151.202;2023-03-08T01:12:59;6.08;;;3.50;;
25667;SDS011;18003;-33.830;151.202;2023-03-08T01:15:29;4.75;;;3.00;;
25667;SDS011;18003;-33.830;151.202;2023-03-08T01:18:00;5.83;;;2.70;;
25667;SDS011;18003;-33.830;151.202;2023-03-08T01:20:30;5.87;;;2.70;;
25667;SDS011;18003;-33.830;151.202;2023-03-08T01:23:00;4.15;;;2.70;;
25667;SDS011;18003;-33.830;151.202;2023-03-08T01:25:30;3.58;;;2.50;;
25667;SDS011;18003;-33.830;151.202;2023-03-08T01:28:05;3.60;;;2.60;;
25667;SDS011;18003;-33.830;151.202;2023-03-08T01:30:31;3.22;;;2.60;;
25667;SDS011;18003;-33.830;151.202;2023-03-08T01:33:01;7.12;;;2.85;;
25667;SDS011;18003;-33.830;151.202;2023-03-08T01:35:31;7.33;;;2.55;;
25667;SDS011;18003;-33.830;151.202;2023-03-08T01:38:01;4.33;;;2.75;;
25667;SDS011;18003;-33.830;151.202;2023-03-08T01:40:31;4.83;;;2.98;;
25667;SDS011;18003;-33.830;151.202;2023-03-08T01:43:20;2.90;;;2.65;;
25667;SDS011;18003;-33.830;151.202;2023-03-08T01:48:42;4.87;;;3.00;;
25667;SDS011;18003;-33.830;151.202;2023-03-08T01:51:27;3.83;;;2.58;;
25667;SDS011;18003;-33.830;151.202;2023-03-08T01:53:55;5.05;;;2.98;;
25667;SDS011;18003;-33.830;151.202;2023-03-08T01:56:27;3.27;;;2.70;;
25667;SDS011;18003;-33.830;151.202;2023-03-08T01:58:58;6.40;;;3.20;;
25667;SDS011;18003;-33.830;151.202;2023-03-08T02:01:29;7.62;;;3.10;;
25667;SDS011;18003;-33.830;151.202;2023-03-08T02:04:00;4.00;;;2.60;;
25667;SDS011;18003;-33.830;151.202;2023-03-08T02:06:30;3.70;;;2.90;;
25667;SDS011;18003;-33.830;151.202;2023-03-08T02:09:01;5.55;;;2.90;;
25667;SDS011;18003;-33.830;151.202;2023-03-08T02:11:32;4.00;;;2.42;;
25667;SDS011;18003;-33.830;151.202;2023-03-08T02:14:04;4.53;;;2.90;;
25667;SDS011;18003;-33.830;151.202;2023-03-08T02:16:34;5.45;;;3.10;;
25667;SDS011;18003;-33.830;151.202;2023-03-08T02:19:10;4.87;;;2.80;;
25667;SDS011;18003;-33.830;151.202;2023-03-08T02:21:39;4.05;;;2.85;;
25667;SDS011;18003;-33.830;151.202;2023-03-08T02:24:19;4.60;;;2.72;;
25667;SDS011;18003;-33.830;151.202;2023-03-08T02:26:50;7.30;;;2.70;;
25667;SDS011;18003;-33.830;151.202;2023-03-08T02:29:21;5.53;;;2.90;;
25667;SDS011;18003;-33.830;151.202;2023-03-08T02:31:51;6.42;;;3.40;;
25667;SDS011;18003;-33.830;151.202;2023-03-08T02:34:21;7.58;;;2.92;;
25667;SDS011;18003;-33.830;151.202;2023-03-08T02:36:51;5.35;;;2.75;;
25667;SDS011;18003;-33.830;151.202;2023-03-08T02:39:21;5.75;;;2.62;;
25667;SDS011;18003;-33.830;151.202;2023-03-08T02:41:51;4.90;;;2.62;;
25667;SDS011;18003;-33.830;151.202;2023-03-08T02:44:21;3.08;;;2.67;;
25667;SDS011;18003;-33.830;151.202;2023-03-08T02:46:51;6.72;;;2.77;;
25667;SDS011;18003;-33.830;151.202;2023-03-08T02:49:21;5.08;;;2.70;;
25667;SDS011;18003;-33.830;151.202;2023-03-08T02:51:51;6.05;;;2.80;;
25667;SDS011;18003;-33.830;151.202;2023-03-08T02:54:21;5.42;;;2.90;;
25667;SDS011;18003;-33.830;151.202;2023-03-08T02:56:51;6.55;;;2.75;;
25667;SDS011;18003;-33.830;151.202;2023-03-08T02:59:21;6.33;;;2.85;;
25667;SDS011;18003;-33.830;151.202;2023-03-08T03:01:53;8.33;;;2.70;;
25667;SDS011;18003;-33.830;151.202;2023-03-08T03:04:23;6.35;;;2.60;;
25667;SDS011;18003;-33.830;151.202;2023-03-08T03:06:54;6.55;;;2.70;;
25667;SDS011;18003;-33.830;151.202;2023-03-08T03:09:24;7.30;;;2.83;;
25667;SDS011;18003;-33.830;151.202;2023-03-08T03:11:54;7.83;;;2.90;;
25667;SDS011;18003;-33.830;151.202;2023-03-08T03:14:26;8.48;;;2.60;;
25667;SDS011;18003;-33.830;151.202;2023-03-08T03:16:55;5.83;;;2.60;;
25667;SDS011;18003;-33.830;151.202;2023-03-08T03:19:25;7.80;;;2.80;;
25667;SDS011;18003;-33.830;151.202;2023-03-08T03:21:55;7.37;;;2.98;;
25667;SDS011;18003;-33.830;151.202;2023-03-08T03:24:25;5.97;;;2.70;;
25667;SDS011;18003;-33.830;151.202;2023-03-08T03:26:55;6.97;;;2.40;;
25667;SDS011;18003;-33.830;151.202;2023-03-08T03:29:25;7.25;;;2.90;;
25667;SDS011;18003;-33.830;151.202;2023-03-08T03:31:55;4.42;;;2.67;;
25667;SDS011;18003;-33.830;151.202;2023-03-08T03:34:25;7.45;;;2.90;;
25667;SDS011;18003;-33.830;151.202;2023-03-08T03:36:55;4.72;;;2.70;;
25667;SDS011;18003;-33.830;151.202;2023-03-08T03:39:26;5.37;;;2.95;;
25667;SDS011;18003;-33.830;151.202;2023-03-08T03:41:57;5.90;;;2.90;;
25667;SDS011;18003;-33.830;151.202;2023-03-08T03:44:31;6.15;;;2.90;;
25667;SDS011;18003;-33.830;151.202;2023-03-08T03:46:57;5.95;;;2.52;;
25667;SDS011;18003;-33.830;151.202;2023-03-08T03:49:28;5.25;;;2.60;;
25667;SDS011;18003;-33.830;151.202;2023-03-08T03:52:00;6.33;;;3.00;;
25667;SDS011;18003;-33.830;151.202;2023-03-08T03:54:29;8.20;;;2.60;;
25667;SDS011;18003;-33.830;151.202;2023-03-08T03:56:59;8.03;;;2.47;;
25667;SDS011;18003;-33.830;151.202;2023-03-08T03:59:29;5.58;;;2.58;;
25667;SDS011;18003;-33.830;151.202;2023-03-08T04:01:59;6.85;;;3.17;;
25667;SDS011;18003;-33.830;151.202;2023-03-08T04:04:29;6.67;;;2.37;;
25667;SDS011;18003;-33.830;151.202;2023-03-08T04:07:00;5.20;;;2.47;;
25667;SDS011;18003;-33.830;151.202;2023-03-08T04:09:30;5.55;;;2.80;;
25667;SDS011;18003;-33.830;151.202;2023-03-08T04:12:00;7.80;;;3.47;;
25667;SDS011;18003;-33.830;151.202;2023-03-08T04:17:00;8.95;;;2.80;;
25667;SDS011;18003;-33.830;151.202;2023-03-08T04:19:30;5.15;;;2.90;;
25667;SDS011;18003;-33.830;151.202;2023-03-08T04:22:00;4.50;;;2.75;;
25667;SDS011;18003;-33.830;151.202;2023-03-08T04:24:30;4.87;;;2.60;;
25667;SDS011;18003;-33.830;151.202;2023-03-08T04:27:00;6.30;;;2.65;;
25667;SDS011;18003;-33.830;151.202;2023-03-08T04:29:30;5.95;;;2.60;;
25667;SDS011;18003;-33.830;151.202;2023-03-08T04:32:00;6.30;;;2.72;;
25667;SDS011;18003;-33.830;151.202;2023-03-08T04:34:31;6.40;;;3.02;;
25667;SDS011;18003;-33.830;151.202;2023-03-08T04:37:01;5.97;;;3.00;;
25667;SDS011;18003;-33.830;151.202;2023-03-08T04:39:31;8.83;;;3.10;;
25667;SDS011;18003;-33.830;151.202;2023-03-08T04:42:01;4.78;;;2.98;;
25667;SDS011;18003;-33.830;151.202;2023-03-08T04:44:31;5.87;;;3.10;;
25667;SDS011;18003;-33.830;151.202;2023-03-08T04:47:01;4.10;;;2.58;;
25667;SDS011;18003;-33.830;151.202;2023-03-08T04:49:31;7.37;;;3.05;;
25667;SDS011;18003;-33.830;151.202;2023-03-08T04:52:01;5.22;;;2.95;;
25667;SDS011;18003;-33.830;151.202;2023-03-08T04:54:31;6.40;;;2.97;;
25667;SDS011;18003;-33.830;151.202;2023-03-08T04:57:01;6.47;;;3.10;;
25667;SDS011;18003;-33.830;151.202;2023-03-08T04:59:31;4.45;;;2.95;;
25667;SDS011;18003;-33.830;151.202;2023-03-08T05:02:02;4.10;;;2.90;;
25667;SDS011;18003;-33.830;151.202;2023-03-08T05:04:32;7.67;;;2.87;;
25667;SDS011;18003;-33.830;151.202;2023-03-08T05:07:02;7.75;;;3.10;;
25667;SDS011;18003;-33.830;151.202;2023-03-08T05:09:32;7.75;;;3.20;;
25667;SDS011;18003;-33.830;151.202;2023-03-08T05:12:03;6.97;;;3.08;;
25667;SDS011;18003;-33.830;151.202;2023-03-08T05:14:33;5.95;;;3.62;;
25667;SDS011;18003;-33.830;151.202;2023-03-08T05:17:03;7.75;;;3.45;;
25667;SDS011;18003;-33.830;151.202;2023-03-08T05:22:22;7.12;;;3.62;;
25667;SDS011;18003;-33.830;151.202;2023-03-08T05:24:52;5.35;;;3.55;;
25667;SDS011;18003;-33.830;151.202;2023-03-08T05:27:22;7.17;;;3.62;;
25667;SDS011;18003;-33.830;151.202;2023-03-08T05:29:52;5.83;;;3.20;;
25667;SDS011;18003;-33.830;151.202;2023-03-08T05:32:22;7.42;;;3.52;;
25667;SDS011;18003;-33.830;151.202;2023-03-08T05:34:52;8.30;;;3.70;;
25667;SDS011;18003;-33.830;151.202;2023-03-08T05:37:23;8.38;;;3.27;;
25667;SDS011;18003;-33.830;151.202;2023-03-08T05:39:53;5.67;;;3.40;;
25667;SDS011;18003;-33.830;151.202;2023-03-08T05:42:23;6.70;;;3.52;;
25667;SDS011;18003;-33.830;151.202;2023-03-08T05:44:53;6.05;;;2.00;;
25667;SDS011;18003;-33.830;151.202;2023-03-08T05:47:23;6.30;;;2.40;;
25667;SDS011;18003;-33.830;151.202;2023-03-08T05:49:54;7.47;;;2.40;;
25667;SDS011;18003;-33.830;151.202;2023-03-08T05:52:24;6.87;;;2.22;;
25667;SDS011;18003;-33.830;151.202;2023-03-08T05:54:54;6.72;;;1.90;;
25667;SDS011;18003;-33.830;151.202;2023-03-08T05:57:24;9.80;;;2.17;;
25667;SDS011;18003;-33.830;151.202;2023-03-08T05:59:55;5.33;;;2.40;;
25667;SDS011;18003;-33.830;151.202;2023-03-08T06:02:25;7.25;;;2.22;;
25667;SDS011;18003;-33.830;151.202;2023-03-08T06:04:56;6.97;;;2.42;;
25667;SDS011;18003;-33.830;151.202;2023-03-08T06:07:25;6.35;;;2.30;;
25667;SDS011;18003;-33.830;151.202;2023-03-08T06:09:56;6.37;;;2.37;;
25667;SDS011;18003;-33.830;151.202;2023-03-08T06:12:26;9.48;;;2.60;;
25667;SDS011;18003;-33.830;151.202;2023-03-08T06:14:56;7.22;;;2.20;;
25667;SDS011;18003;-33.830;151.202;2023-03-08T06:17:26;6.17;;;2.25;;
25667;SDS011;18003;-33.830;151.202;2023-03-08T06:19:56;6.30;;;2.22;;
25667;SDS011;18003;-33.830;151.202;2023-03-08T06:22:26;6.00;;;2.55;;
25667;SDS011;18003;-33.830;151.202;2023-03-08T06:27:26;7.92;;;2.67;;
25667;SDS011;18003;-33.830;151.202;2023-03-08T06:29:56;7.72;;;2.33;;
25667;SDS011;18003;-33.830;151.202;2023-03-08T06:32:26;8.38;;;2.60;;
25667;SDS011;18003;-33.830;151.202;2023-03-08T06:34:56;7.67;;;2.47;;
25667;SDS011;18003;-33.830;151.202;2023-03-08T06:37:26;4.35;;;2.02;;
25667;SDS011;18003;-33.830;151.202;2023-03-08T06:39:58;7.67;;;2.75;;
25667;SDS011;18003;-33.830;151.202;2023-03-08T06:42:29;8.08;;;2.60;;
25667;SDS011;18003;-33.830;151.202;2023-03-08T06:44:59;8.25;;;2.55;;
25667;SDS011;18003;-33.830;151.202;2023-03-08T06:47:29;7.45;;;2.50;;
25667;SDS011;18003;-33.830;151.202;2023-03-08T06:50:01;6.60;;;2.60;;
25667;SDS011;18003;-33.830;151.202;2023-03-08T06:52:36;8.28;;;2.50;;
25667;SDS011;18003;-33.830;151.202;2023-03-08T06:55:06;5.75;;;2.85;;
25667;SDS011;18003;-33.830;151.202;2023-03-08T06:57:37;7.78;;;3.08;;
25667;SDS011;18003;-33.830;151.202;2023-03-08T07:00:09;6.00;;;2.95;;
25667;SDS011;18003;-33.830;151.202;2023-03-08T07:05:08;5.97;;;2.60;;
25667;SDS011;18003;-33.830;151.202;2023-03-08T07:10:07;7.45;;;2.75;;
25667;SDS011;18003;-33.830;151.202;2023-03-08T07:12:41;7.62;;;2.60;;
25667;SDS011;18003;-33.830;151.202;2023-03-08T07:15:12;4.65;;;2.70;;
25667;SDS011;18003;-33.830;151.202;2023-03-08T07:17:50;6.75;;;3.10;;
25667;SDS011;18003;-33.830;151.202;2023-03-08T07:20:16;7.50;;;2.85;;
25667;SDS011;18003;-33.830;151.202;2023-03-08T07:22:47;5.95;;;2.67;;
25667;SDS011;18003;-33.830;151.202;2023-03-08T07:25:18;5.90;;;2.85;;
25667;SDS011;18003;-33.830;151.202;2023-03-08T07:27:48;8.85;;;2.90;;
25667;SDS011;18003;-33.830;151.202;2023-03-08T07:30:18;6.70;;;2.60;;
25667;SDS011;18003;-33.830;151.202;2023-03-08T07:32:48;6.45;;;2.87;;
25667;SDS011;18003;-33.830;151.202;2023-03-08T07:35:19;6.83;;;2.83;;
25667;SDS011;18003;-33.830;151.202;2023-03-08T07:37:49;9.35;;;3.17;;
25667;SDS011;18003;-33.830;151.202;2023-03-08T07:40:19;5.12;;;2.60;;
25667;SDS011;18003;-33.830;151.202;2023-03-08T07:42:49;10.10;;;3.67;;
25667;SDS011;18003;-33.830;151.202;2023-03-08T07:45:19;6.80;;;3.60;;
25667;SDS011;18003;-33.830;151.202;2023-03-08T07:47:49;7.28;;;3.30;;
25667;SDS011;18003;-33.830;151.202;2023-03-08T07:50:20;7.42;;;3.60;;
25667;SDS011;18003;-33.830;151.202;2023-03-08T07:52:50;9.98;;;3.80;;
25667;SDS011;18003;-33.830;151.202;2023-03-08T07:55:20;9.40;;;3.67;;
25667;SDS011;18003;-33.830;151.202;2023-03-08T07:57:51;6.87;;;3.75;;
25667;SDS011;18003;-33.830;151.202;2023-03-08T08:00:21;9.53;;;6.58;;
25667;SDS011;18003;-33.830;151.202;2023-03-08T08:02:51;17.57;;;9.73;;
25667;SDS011;18003;-33.830;151.202;2023-03-08T08:05:21;15.60;;;9.40;;
25667;SDS011;18003;-33.830;151.202;2023-03-08T08:07:51;17.48;;;10.20;;
25667;SDS011;18003;-33.830;151.202;2023-03-08T08:10:22;22.75;;;8.05;;
25667;SDS011;18003;-33.830;151.202;2023-03-08T08:12:51;18.30;;;6.25;;
25667;SDS011;18003;-33.830;151.202;2023-03-08T08:15:23;17.45;;;9.78;;
25667;SDS011;18003;-33.830;151.202;2023-03-08T08:17:53;11.90;;;5.90;;
25667;SDS011;18003;-33.830;151.202;2023-03-08T08:20:23;10.63;;;5.65;;
25667;SDS011;18003;-33.830;151.202;2023-03-08T08:22:53;9.00;;;4.60;;
25667;SDS011;18003;-33.830;151.202;2023-03-08T08:25:23;9.05;;;4.17;;
25667;SDS011;18003;-33.830;151.202;2023-03-08T08:27:53;15.23;;;4.05;;
25667;SDS011;18003;-33.830;151.202;2023-03-08T08:30:23;11.25;;;3.77;;
25667;SDS011;18003;-33.830;151.202;2023-03-08T08:32:53;7.47;;;3.75;;
25667;SDS011;18003;-33.830;151.202;2023-03-08T08:35:22;11.83;;;3.67;;
25667;SDS011;18003;-33.830;151.202;2023-03-08T08:37:52;9.73;;;3.95;;
25667;SDS011;18003;-33.830;151.202;2023-03-08T08:40:22;9.93;;;3.40;;
25667;SDS011;18003;-33.830;151.202;2023-03-08T08:42:52;7.45;;;3.10;;
25667;SDS011;18003;-33.830;151.202;2023-03-08T08:45:22;7.50;;;2.70;;
25667;SDS011;18003;-33.830;151.202;2023-03-08T08:47:55;7.50;;;3.30;;
25667;SDS011;18003;-33.830;151.202;2023-03-08T08:50:25;7.37;;;3.25;;
25667;SDS011;18003;-33.830;151.202;2023-03-08T08:52:55;7.05;;;3.22;;
25667;SDS011;18003;-33.830;151.202;2023-03-08T08:55:25;9.03;;;3.30;;
25667;SDS011;18003;-33.830;151.202;2023-03-08T08:57:55;7.58;;;3.30;;
25667;SDS011;18003;-33.830;151.202;2023-03-08T09:00:25;8.75;;;3.35;;
25667;SDS011;18003;-33.830;151.202;2023-03-08T09:02:55;9.45;;;3.52;;
25667;SDS011;18003;-33.830;151.202;2023-03-08T09:05:25;7.78;;;3.80;;
25667;SDS011;18003;-33.830;151.202;2023-03-08T09:07:56;6.80;;;3.50;;
25667;SDS011;18003;-33.830;151.202;2023-03-08T09:10:28;6.53;;;3.25;;
25667;SDS011;18003;-33.830;151.202;2023-03-08T09:12:59;8.75;;;3.30;;
25667;SDS011;18003;-33.830;151.202;2023-03-08T09:15:29;8.95;;;3.30;;
25667;SDS011;18003;-33.830;151.202;2023-03-08T09:17:59;9.28;;;3.62;;
25667;SDS011;18003;-33.830;151.202;2023-03-08T09:20:29;7.25;;;3.10;;
25667;SDS011;18003;-33.830;151.202;2023-03-08T09:22:59;9.38;;;3.20;;
25667;SDS011;18003;-33.830;151.202;2023-03-08T09:25:29;6.65;;;3.00;;
25667;SDS011;18003;-33.830;151.202;2023-03-08T09:27:58;8.00;;;3.12;;
25667;SDS011;18003;-33.830;151.202;2023-03-08T09:30:28;8.83;;;3.47;;
25667;SDS011;18003;-33.830;151.202;2023-03-08T09:32:58;5.58;;;3.08;;
25667;SDS011;18003;-33.830;151.202;2023-03-08T09:35:29;6.83;;;2.92;;
25667;SDS011;18003;-33.830;151.202;2023-03-08T09:37:59;7.37;;;2.87;;
25667;SDS011;18003;-33.830;151.202;2023-03-08T09:40:28;8.55;;;2.60;;
25667;SDS011;18003;-33.830;151.202;2023-03-08T09:43:01;8.00;;;2.92;;
25667;SDS011;18003;-33.830;151.202;2023-03-08T09:45:32;7.10;;;3.02;;
25667;SDS011;18003;-33.830;151.202;2023-03-08T09:48:15;7.28;;;2.95;;
25667;SDS011;18003;-33.830;151.202;2023-03-08T09:50:48;10.00;;;3.10;;
25667;SDS011;18003;-33.830;151.202;2023-03-08T09:53:20;8.68;;;3.02;;
25667;SDS011;18003;-33.830;151.202;2023-03-08T09:55:54;7.75;;;2.90;;
25667;SDS011;18003;-33.830;151.202;2023-03-08T09:58:29;6.30;;;3.30;;
25667;SDS011;18003;-33.830;151.202;2023-03-08T10:03:57;8.78;;;3.05;;
25667;SDS011;18003;-33.830;151.202;2023-03-08T10:06:49;8.63;;;2.92;;
25667;SDS011;18003;-33.830;151.202;2023-03-08T10:14:36;8.83;;;3.15;;
25667;SDS011;18003;-33.830;151.202;2023-03-08T10:17:03;8.03;;;3.12;;
25667;SDS011;18003;-33.830;151.202;2023-03-08T10:19:45;7.62;;;2.80;;
25667;SDS011;18003;-33.830;151.202;2023-03-08T10:22:21;7.78;;;3.37;;
25667;SDS011;18003;-33.830;151.202;2023-03-08T10:27:52;5.47;;;2.77;;
25667;SDS011;18003;-33.830;151.202;2023-03-08T10:32:53;7.42;;;2.95;;
25667;SDS011;18003;-33.830;151.202;2023-03-08T10:35:31;8.73;;;3.20;;
25667;SDS011;18003;-33.830;151.202;2023-03-08T10:38:13;9.85;;;3.58;;
25667;SDS011;18003;-33.830;151.202;2023-03-08T10:40:36;6.60;;;2.90;;
25667;SDS011;18003;-33.830;151.202;2023-03-08T10:43:06;6.30;;;3.00;;
25667;SDS011;18003;-33.830;151.202;2023-03-08T10:45:37;7.62;;;3.72;;
25667;SDS011;18003;-33.830;151.202;2023-03-08T10:48:16;9.28;;;3.30;;
25667;SDS011;18003;-33.830;151.202;2023-03-08T10:50:44;5.92;;;3.02;;
25667;SDS011;18003;-33.830;151.202;2023-03-08T10:53:16;8.25;;;3.42;;
25667;SDS011;18003;-33.830;151.202;2023-03-08T10:55:48;8.98;;;3.20;;
25667;SDS011;18003;-33.830;151.202;2023-03-08T10:58:38;6.12;;;2.87;;
25667;SDS011;18003;-33.830;151.202;2023-03-08T11:01:01;6.97;;;2.90;;
25667;SDS011;18003;-33.830;151.202;2023-03-08T11:03:32;9.08;;;3.17;;
25667;SDS011;18003;-33.830;151.202;2023-03-08T11:06:03;6.87;;;3.15;;
25667;SDS011;18003;-33.830;151.202;2023-03-08T11:08:36;9.15;;;2.90;;
25667;SDS011;18003;-33.830;151.202;2023-03-08T11:11:07;10.75;;;3.40;;
25667;SDS011;18003;-33.830;151.202;2023-03-08T11:13:42;8.83;;;3.15;;
25667;SDS011;18003;-33.830;151.202;2023-03-08T11:19:05;7.20;;;2.90;;
25667;SDS011;18003;-33.830;151.202;2023-03-08T11:21:56;7.47;;;2.75;;
25667;SDS011;18003;-33.830;151.202;2023-03-08T11:30:35;6.80;;;2.90;;
25667;SDS011;18003;-33.830;151.202;2023-03-08T11:33:31;5.53;;;2.75;;
25667;SDS011;18003;-33.830;151.202;2023-03-08T11:38:58;10.35;;;2.92;;
25667;SDS011;18003;-33.830;151.202;2023-03-08T11:44:46;9.88;;;3.08;;
25667;SDS011;18003;-33.830;151.202;2023-03-08T11:47:19;7.22;;;2.85;;
25667;SDS011;18003;-33.830;151.202;2023-03-08T11:50:06;12.35;;;3.50;;
25667;SDS011;18003;-33.830;151.202;2023-03-08T11:52:53;8.08;;;3.37;;
25667;SDS011;18003;-33.830;151.202;2023-03-08T11:55:37;8.83;;;3.22;;
25667;SDS011;18003;-33.830;151.202;2023-03-08T11:58:19;9.40;;;3.35;;
25667;SDS011;18003;-33.830;151.202;2023-03-08T12:01:38;7.92;;;3.17;;
25667;SDS011;18003;-33.830;151.202;2023-03-08T12:03:48;9.50;;;3.20;;
25667;SDS011;18003;-33.830;151.202;2023-03-08T12:06:37;7.50;;;3.15;;
25667;SDS011;18003;-33.830;151.202;2023-03-08T12:14:38;9.98;;;3.62;;
25667;SDS011;18003;-33.830;151.202;2023-03-08T12:17:12;10.68;;;3.50;;
25667;SDS011;18003;-33.830;151.202;2023-03-08T12:19:41;6.83;;;3.37;;
25667;SDS011;18003;-33.830;151.202;2023-03-08T12:28:11;7.80;;;3.47;;
25667;SDS011;18003;-33.830;151.202;2023-03-08T12:33:43;6.67;;;2.80;;
25667;SDS011;18003;-33.830;151.202;2023-03-08T12:36:13;9.78;;;3.10;;
25667;SDS011;18003;-33.830;151.202;2023-03-08T12:38:44;8.18;;;3.10;;
25667;SDS011;18003;-33.830;151.202;2023-03-08T12:41:27;7.60;;;3.22;;
25667;SDS011;18003;-33.830;151.202;2023-03-08T12:44:05;7.67;;;2.95;;
25667;SDS011;18003;-33.830;151.202;2023-03-08T12:46:55;7.70;;;2.75;;
25667;SDS011;18003;-33.830;151.202;2023-03-08T12:49:27;7.10;;;2.83;;
25667;SDS011;18003;-33.830;151.202;2023-03-08T12:52:03;7.65;;;2.20;;
25667;SDS011;18003;-33.830;151.202;2023-03-08T12:54:33;5.83;;;2.35;;
25667;SDS011;18003;-33.830;151.202;2023-03-08T12:57:12;6.23;;;2.43;;
25667;SDS011;18003;-33.830;151.202;2023-03-08T12:59:35;7.00;;;2.35;;
25667;SDS011;18003;-33.830;151.202;2023-03-08T13:02:26;5.90;;;2.30;;
25667;SDS011;18003;-33.830;151.202;2023-03-08T13:05:16;8.65;;;2.60;;
25667;SDS011;18003;-33.830;151.202;2023-03-08T13:13:28;7.17;;;2.58;;
25667;SDS011;18003;-33.830;151.202;2023-03-08T13:16:16;4.67;;;2.50;;
25667;SDS011;18003;-33.830;151.202;2023-03-08T13:18:35;6.42;;;2.60;;
25667;SDS011;18003;-33.830;151.202;2023-03-08T13:29:30;8.18;;;2.50;;
25667;SDS011;18003;-33.830;151.202;2023-03-08T13:32:16;4.72;;;2.40;;
25667;SDS011;18003;-33.830;151.202;2023-03-08T13:35:09;6.62;;;2.55;;
25667;SDS011;18003;-33.830;151.202;2023-03-08T13:37:28;5.83;;;2.33;;
25667;SDS011;18003;-33.830;151.202;2023-03-08T13:39:59;5.62;;;2.35;;
25667;SDS011;18003;-33.830;151.202;2023-03-08T13:42:30;5.95;;;2.35;;
25667;SDS011;18003;-33.830;151.202;2023-03-08T13:45:15;6.08;;;2.12;;
25667;SDS011;18003;-33.830;151.202;2023-03-08T13:47:38;4.40;;;2.35;;
25667;SDS011;18003;-33.830;151.202;2023-03-08T13:50:14;5.83;;;2.30;;
25667;SDS011;18003;-33.830;151.202;2023-03-08T13:52:44;4.58;;;2.50;;
25667;SDS011;18003;-33.830;151.202;2023-03-08T13:55:18;5.08;;;2.02;;
25667;SDS011;18003;-33.830;151.202;2023-03-08T13:57:49;5.60;;;2.30;;
25667;SDS011;18003;-33.830;151.202;2023-03-08T14:00:25;7.62;;;2.27;;
25667;SDS011;18003;-33.830;151.202;2023-03-08T14:03:02;5.30;;;2.13;;
25667;SDS011;18003;-33.830;151.202;2023-03-08T14:05:42;3.67;;;2.00;;
25667;SDS011;18003;-33.830;151.202;2023-03-08T14:08:21;4.85;;;1.92;;
25667;SDS011;18003;-33.830;151.202;2023-03-08T14:10:54;10.30;;;2.25;;
25667;SDS011;18003;-33.830;151.202;2023-03-08T14:13:35;4.65;;;2.15;;
25667;SDS011;18003;-33.830;151.202;2023-03-08T14:16:03;8.18;;;2.30;;
25667;SDS011;18003;-33.830;151.202;2023-03-08T14:21:11;7.20;;;2.40;;
25667;SDS011;18003;-33.830;151.202;2023-03-08T14:23:47;4.90;;;2.40;;
25667;SDS011;18003;-33.830;151.202;2023-03-08T14:26:23;6.65;;;2.20;;
25667;SDS011;18003;-33.830;151.202;2023-03-08T14:34:28;5.72;;;2.30;;
25667;SDS011;18003;-33.830;151.202;2023-03-08T14:37:05;4.05;;;2.12;;
25667;SDS011;18003;-33.830;151.202;2023-03-08T14:39:33;3.75;;;2.02;;
25667;SDS011;18003;-33.830;151.202;2023-03-08T14:42:08;4.17;;;2.20;;
25667;SDS011;18003;-33.830;151.202;2023-03-08T14:44:39;5.47;;;2.12;;
25667;SDS011;18003;-33.830;151.202;2023-03-08T14:47:22;4.58;;;2.20;;
25667;SDS011;18003;-33.830;151.202;2023-03-08T14:49:59;5.85;;;2.50;;
25667;SDS011;18003;-33.830;151.202;2023-03-08T14:52:28;4.30;;;2.27;;
25667;SDS011;18003;-33.830;151.202;2023-03-08T14:55:00;3.60;;;1.90;;
25667;SDS011;18003;-33.830;151.202;2023-03-08T14:57:30;4.80;;;2.20;;
25667;SDS011;18003;-33.830;151.202;2023-03-08T15:00:04;4.55;;;1.80;;
25667;SDS011;18003;-33.830;151.202;2023-03-08T15:02:37;5.20;;;2.40;;
25667;SDS011;18003;-33.830;151.202;2023-03-08T15:05:17;6.72;;;2.00;;
25667;SDS011;18003;-33.830;151.202;2023-03-08T15:07:47;5.83;;;2.20;;
25667;SDS011;18003;-33.830;151.202;2023-03-08T15:10:28;4.83;;;2.12;;
25667;SDS011;18003;-33.830;151.202;2023-03-08T15:12:56;5.30;;;2.10;;
25667;SDS011;18003;-33.830;151.202;2023-03-08T15:15:27;5.87;;;2.40;;
25667;SDS011;18003;-33.830;151.202;2023-03-08T15:17:57;5.05;;;2.17;;
25667;SDS011;18003;-33.830;151.202;2023-03-08T15:20:27;5.45;;;2.00;;
25667;SDS011;18003;-33.830;151.202;2023-03-08T15:23:00;6.17;;;2.00;;
25667;SDS011;18003;-33.830;151.202;2023-03-08T15:25:36;5.92;;;2.02;;
25667;SDS011;18003;-33.830;151.202;2023-03-08T15:28:09;6.80;;;2.20;;
25667;SDS011;18003;-33.830;151.202;2023-03-08T15:30:38;4.40;;;2.20;;
25667;SDS011;18003;-33.830;151.202;2023-03-08T15:33:08;5.47;;;2.10;;
25667;SDS011;18003;-33.830;151.202;2023-03-08T15:35:38;5.78;;;2.08;;
25667;SDS011;18003;-33.830;151.202;2023-03-08T15:38:10;5.17;;;2.12;;
25667;SDS011;18003;-33.830;151.202;2023-03-08T15:40:43;5.85;;;1.98;;
25667;SDS011;18003;-33.830;151.202;2023-03-08T15:43:13;4.03;;;1.80;;
25667;SDS011;18003;-33.830;151.202;2023-03-08T15:45:43;4.95;;;2.17;;
25667;SDS011;18003;-33.830;151.202;2023-03-08T15:48:14;4.95;;;1.87;;
25667;SDS011;18003;-33.830;151.202;2023-03-08T15:50:45;4.37;;;1.80;;
25667;SDS011;18003;-33.830;151.202;2023-03-08T15:53:15;5.62;;;1.90;;
25667;SDS011;18003;-33.830;151.202;2023-03-08T15:55:45;4.47;;;1.92;;